Time;durP1;ratioP1;P1;durP2;ratioP2;P2;SDS_P1;SDS_P2;PMS_P1;PMS_P2;Temp;Humidity;BMP_temperature;BMP_pressure;BME280_temperature;BME280_humidity;BME280_pressure;Samples;Min_cycle;Max_cycle;Signal;HPM_P1;HPM_P2
2022/05/28 00:00:24;;;;;;;15.90;5.50;;;8.80;99.90;;;;;;5084869;28;20201;-75
2022/05/28 00:02:51;;;;;;;12.03;5.67;;;8.90;99.90;;;;;;5087695;28;20300;-75
2022/05/28 00:05:20;;;;;;;16.33;6.13;;;8.80;99.90;;;;;;5082569;28;20287;-75
2022/05/28 00:07:47;;;;;;;14.17;5.80;;;8.80;99.90;;;;;;5085280;28;20645;-74
2022/05/28 00:10:18;;;;;;;18.53;6.40;;;8.80;99.90;;;;;;5083925;28;20314;-75
2022/05/28 00:12:45;;;;;;;18.07;6.37;;;8.70;99.90;;;;;;5077235;28;20306;-74
2022/05/28 00:15:13;;;;;;;22.37;6.97;;;8.70;99.90;;;;;;5082618;28;20299;-75
2022/05/28 00:17:40;;;;;;;18.17;6.60;;;8.70;99.90;;;;;;5083063;28;20905;-75
2022/05/28 00:20:09;;;;;;;18.77;6.27;;;8.70;99.90;;;;;;5083271;28;20697;-74
2022/05/28 00:22:43;;;;;;;12.13;6.33;;;8.70;99.90;;;;;;5081973;28;20662;-75
2022/05/28 00:25:11;;;;;;;14.40;6.47;;;8.70;99.90;;;;;;5083894;28;20301;-75
2022/05/28 00:27:38;;;;;;;15.30;6.10;;;8.60;99.90;;;;;;5078388;28;20308;-74
2022/05/28 00:30:07;;;;;;;14.90;5.73;;;8.50;99.90;;;;;;5081887;28;20229;-74
2022/05/28 00:32:34;;;;;;;13.57;6.40;;;8.40;99.90;;;;;;5080689;28;20232;-75
2022/05/28 00:35:01;;;;;;;19.33;6.40;;;8.40;99.90;;;;;;5079775;28;20294;-75
2022/05/28 00:37:28;;;;;;;26.30;6.53;;;8.40;99.90;;;;;;5079451;28;20195;-75
2022/05/28 00:39:56;;;;;;;18.03;6.27;;;8.40;99.90;;;;;;5084843;28;20239;-75
2022/05/28 00:45:00;;;;;;;19.53;6.73;;;8.40;99.90;;;;;;4642991;22;20260;-78
2022/05/28 00:47:27;;;;;;;16.50;6.13;;;8.40;99.90;;;;;;5059902;28;20312;-78
2022/05/28 00:49:54;;;;;;;14.30;6.60;;;8.40;99.90;;;;;;5064352;28;20276;-77
2022/05/28 00:52:24;;;;;;;20.63;7.03;;;8.40;99.90;;;;;;5069446;28;20223;-78
2022/05/28 00:54:51;;;;;;;18.40;6.63;;;8.40;99.90;;;;;;5059247;28;20208;-77
2022/05/28 00:57:21;;;;;;;15.87;6.43;;;8.40;99.90;;;;;;5064171;28;20203;-80
2022/05/28 00:59:48;;;;;;;16.07;6.50;;;8.30;99.90;;;;;;5065910;28;20239;-78
2022/05/28 01:02:21;;;;;;;15.23;6.10;;;8.10;99.90;;;;;;5066974;28;20306;-77
2022/05/28 01:04:54;;;;;;;16.40;5.33;;;8.00;99.90;;;;;;5063986;28;20209;-79
2022/05/28 01:07:31;;;;;;;17.00;6.30;;;7.90;99.90;;;;;;5063694;28;21735;-79
2022/05/28 01:10:07;;;;;;;13.73;6.33;;;7.80;99.90;;;;;;5062603;28;20203;-79
2022/05/28 01:12:45;;;;;;;15.70;6.00;;;7.70;99.90;;;;;;5068671;28;20241;-79
2022/05/28 01:15:17;;;;;;;12.00;5.40;;;7.70;99.90;;;;;;5063732;28;20312;-79
2022/05/28 01:17:48;;;;;;;13.40;5.37;;;7.70;99.90;;;;;;5066987;28;20222;-79
2022/05/28 01:20:21;;;;;;;12.40;5.60;;;7.70;99.90;;;;;;5068322;28;20295;-79
2022/05/28 01:23:12;;;;;;;13.53;6.00;;;7.70;99.90;;;;;;5065287;28;20686;-79
2022/05/28 01:25:50;;;;;;;10.10;5.40;;;7.60;99.90;;;;;;5066308;28;20231;-79
2022/05/28 01:28:21;;;;;;;9.10;5.63;;;7.70;99.90;;;;;;5070710;28;20218;-79
2022/05/28 01:30:50;;;;;;;11.07;5.63;;;7.60;99.90;;;;;;5068400;28;20202;-79
2022/05/28 01:33:18;;;;;;;16.10;5.87;;;7.60;99.90;;;;;;5066742;28;20235;-78
2022/05/28 01:35:47;;;;;;;15.27;6.03;;;7.60;99.90;;;;;;5067867;28;20799;-79
2022/05/28 01:38:16;;;;;;;12.60;6.27;;;7.60;99.90;;;;;;5068172;28;20282;-79
2022/05/28 01:40:44;;;;;;;18.07;5.93;;;7.50;99.90;;;;;;5068252;28;21112;-79
2022/05/28 01:43:13;;;;;;;14.50;6.60;;;7.60;99.90;;;;;;5067727;28;20258;-79
2022/05/28 01:45:44;;;;;;;14.30;6.20;;;7.60;99.90;;;;;;5065927;28;20251;-79
2022/05/28 01:48:13;;;;;;;13.50;6.03;;;7.60;99.90;;;;;;5068238;28;20242;-79
2022/05/28 01:50:44;;;;;;;17.57;6.30;;;7.60;99.90;;;;;;5061369;28;20416;-79
2022/05/28 01:54:06;;;;;;;15.77;5.97;;;7.50;99.90;;;;;;5066696;28;20298;-79
2022/05/28 01:56:03;;;;;;;12.37;6.13;;;7.40;99.90;;;;;;5064403;28;20206;-79
2022/05/28 01:58:30;;;;;;;15.67;6.03;;;7.50;99.90;;;;;;5064291;28;20690;-79
2022/05/28 02:01:00;;;;;;;14.30;5.97;;;7.40;99.90;;;;;;5063260;28;20238;-79
2022/05/28 02:03:27;;;;;;;15.23;6.33;;;7.40;99.90;;;;;;5062148;28;20641;-79
2022/05/28 02:05:55;;;;;;;15.63;5.83;;;7.30;99.90;;;;;;5068594;28;20276;-79
2022/05/28 02:08:23;;;;;;;14.67;6.50;;;7.30;99.90;;;;;;5063773;28;20937;-79
2022/05/28 02:10:58;;;;;;;13.60;6.00;;;7.20;99.90;;;;;;5068335;28;20226;-79
2022/05/28 02:13:33;;;;;;;13.27;5.70;;;7.20;99.90;;;;;;5065502;28;20692;-79
2022/05/28 02:16:07;;;;;;;19.47;6.27;;;7.20;99.90;;;;;;5070609;28;20235;-79
2022/05/28 02:18:43;;;;;;;11.83;5.80;;;7.10;99.90;;;;;;5067717;28;20284;-79
2022/05/28 02:21:17;;;;;;;13.60;5.97;;;7.00;99.90;;;;;;5070033;28;20207;-79
2022/05/28 02:23:50;;;;;;;13.43;6.50;;;7.00;99.90;;;;;;5072190;28;20636;-79
2022/05/28 02:26:23;;;;;;;14.80;5.90;;;7.10;99.90;;;;;;5068760;28;20283;-79
2022/05/28 02:28:50;;;;;;;13.80;6.40;;;7.20;99.90;;;;;;5070153;28;20304;-79
2022/05/28 02:31:20;;;;;;;14.43;6.10;;;7.20;99.90;;;;;;5071865;28;20280;-79
2022/05/28 02:33:47;;;;;;;20.17;7.00;;;7.10;99.90;;;;;;5072471;28;20291;-79
2022/05/28 02:36:16;;;;;;;14.10;6.27;;;7.10;99.90;;;;;;5070762;28;20235;-79
2022/05/28 02:38:43;;;;;;;11.30;6.00;;;7.00;99.90;;;;;;5071416;28;20309;-79
2022/05/28 02:41:10;;;;;;;13.93;5.50;;;6.90;99.90;;;;;;5071903;28;20290;-79
2022/05/28 02:43:37;;;;;;;13.50;5.77;;;6.80;99.90;;;;;;5071802;28;20348;-79
2022/05/28 02:46:06;;;;;;;14.97;5.83;;;6.70;99.90;;;;;;5066820;28;20686;-78
2022/05/28 02:48:35;;;;;;;16.07;6.10;;;6.70;99.90;;;;;;5070190;28;20258;-79
2022/05/28 02:51:03;;;;;;;15.13;6.60;;;6.70;99.90;;;;;;5069590;28;20656;-79
2022/05/28 02:53:30;;;;;;;15.57;6.33;;;6.70;99.90;;;;;;5067559;28;20689;-79
2022/05/28 02:55:57;;;;;;;18.57;6.80;;;6.70;99.90;;;;;;5067577;28;20238;-79
2022/05/28 02:58:24;;;;;;;17.20;7.20;;;6.70;99.90;;;;;;5068678;28;20199;-79
2022/05/28 03:00:51;;;;;;;13.73;6.30;;;6.80;99.90;;;;;;5065675;28;20229;-79
2022/05/28 03:03:20;;;;;;;12.13;5.80;;;6.70;99.90;;;;;;5062759;28;20267;-79
2022/05/28 03:05:48;;;;;;;9.43;4.70;;;6.60;99.90;;;;;;5068212;28;20202;-79
2022/05/28 03:08:15;;;;;;;10.10;4.87;;;6.40;99.90;;;;;;5069616;28;20314;-79
2022/05/28 03:10:42;;;;;;;7.77;4.40;;;6.30;99.90;;;;;;5068442;28;20273;-79
2022/05/28 03:13:09;;;;;;;12.43;4.87;;;6.20;99.90;;;;;;5066651;28;20211;-79
2022/05/28 03:15:37;;;;;;;10.37;5.30;;;6.20;99.90;;;;;;5068542;28;20327;-79
2022/05/28 03:18:04;;;;;;;13.77;5.67;;;6.20;99.90;;;;;;5070079;28;20287;-79
2022/05/28 03:20:31;;;;;;;14.07;6.10;;;6.20;99.90;;;;;;5066761;28;20647;-79
2022/05/28 03:22:59;;;;;;;11.30;5.70;;;6.30;99.90;;;;;;5067443;28;20720;-79
2022/05/28 03:25:26;;;;;;;11.33;4.87;;;6.30;99.90;;;;;;5067671;28;20242;-80
2022/05/28 03:27:53;;;;;;;11.10;5.30;;;6.20;99.90;;;;;;5071471;28;20738;-79
2022/05/28 03:30:20;;;;;;;9.60;4.77;;;6.10;99.90;;;;;;5067360;28;20227;-79
2022/05/28 03:32:47;;;;;;;12.73;4.90;;;6.00;99.90;;;;;;5069780;28;20238;-78
2022/05/28 03:35:14;;;;;;;14.87;5.40;;;6.00;99.90;;;;;;5071432;28;20249;-79
2022/05/28 03:37:41;;;;;;;12.37;4.57;;;5.90;99.90;;;;;;5070070;28;20341;-78
2022/05/28 03:40:10;;;;;;;10.03;4.60;;;6.00;99.90;;;;;;5068848;28;20294;-78
2022/05/28 03:42:37;;;;;;;10.50;4.87;;;5.90;99.90;;;;;;5069804;28;20199;-79
2022/05/28 03:45:05;;;;;;;9.83;4.40;;;5.90;99.90;;;;;;5066768;28;20322;-79
2022/05/28 03:47:33;;;;;;;11.07;4.70;;;5.80;99.90;;;;;;5068421;28;20253;-79
2022/05/28 03:50:00;;;;;;;9.97;4.83;;;5.80;99.90;;;;;;5067398;28;20316;-79
2022/05/28 03:52:27;;;;;;;6.83;4.30;;;5.80;99.90;;;;;;5067545;28;20240;-78
2022/05/28 03:54:54;;;;;;;7.87;4.50;;;5.80;99.90;;;;;;5068950;28;20233;-79
2022/05/28 03:57:25;;;;;;;8.27;4.57;;;5.70;99.90;;;;;;5069800;28;20246;-78
2022/05/28 03:59:53;;;;;;;7.80;4.23;;;5.70;99.90;;;;;;5063225;28;20293;-78
2022/05/28 04:02:20;;;;;;;8.00;4.80;;;5.70;99.90;;;;;;5069841;28;20297;-78
2022/05/28 04:04:47;;;;;;;9.93;4.13;;;5.60;99.90;;;;;;5070187;28;20297;-78
2022/05/28 04:07:15;;;;;;;8.90;4.40;;;5.70;99.90;;;;;;5070056;28;20308;-79
2022/05/28 04:09:42;;;;;;;9.97;4.70;;;5.70;99.90;;;;;;5067148;28;20262;-79
2022/05/28 04:12:09;;;;;;;7.37;4.57;;;5.80;99.90;;;;;;5069222;28;20238;-79
2022/05/28 04:14:37;;;;;;;8.47;4.63;;;5.70;99.90;;;;;;5065182;28;20253;-78
2022/05/28 04:17:04;;;;;;;10.27;4.60;;;5.70;99.90;;;;;;5066108;28;20288;-79
2022/05/28 04:19:32;;;;;;;9.63;4.60;;;5.70;99.90;;;;;;5067252;28;20289;-78
2022/05/28 04:21:59;;;;;;;8.67;4.20;;;5.70;99.90;;;;;;5069937;28;20203;-77
2022/05/28 04:24:27;;;;;;;9.53;4.20;;;5.70;99.90;;;;;;5060684;28;20626;-77
2022/05/28 04:26:54;;;;;;;5.90;3.87;;;5.50;99.90;;;;;;5066509;28;20212;-79
2022/05/28 04:29:20;;;;;;;4.70;3.70;;;5.50;99.90;;;;;;5067232;28;20312;-79
2022/05/28 04:31:49;;;;;;;7.70;3.87;;;5.60;99.90;;;;;;5067110;28;20652;-79
2022/05/28 04:34:16;;;;;;;9.97;4.00;;;5.50;99.90;;;;;;5064323;28;20315;-79
2022/05/28 04:36:43;;;;;;;6.53;4.07;;;5.60;99.90;;;;;;5065875;28;20276;-79
2022/05/28 04:39:10;;;;;;;6.13;3.80;;;5.60;99.90;;;;;;5068943;28;20252;-79
2022/05/28 04:41:37;;;;;;;6.50;3.83;;;5.60;99.90;;;;;;5063993;28;20643;-79
2022/05/28 04:44:04;;;;;;;8.20;4.20;;;5.60;99.90;;;;;;5065665;28;20278;-79
2022/05/28 04:46:31;;;;;;;7.27;4.17;;;5.70;99.90;;;;;;5068204;28;20242;-79
2022/05/28 04:48:59;;;;;;;5.60;3.93;;;5.70;99.90;;;;;;5068627;28;20332;-79
2022/05/28 04:51:26;;;;;;;10.23;4.20;;;5.70;99.90;;;;;;5064757;28;20230;-79
2022/05/28 04:53:53;;;;;;;8.27;4.30;;;5.80;99.90;;;;;;5069392;28;20279;-79
2022/05/28 04:56:20;;;;;;;7.23;4.13;;;5.80;99.90;;;;;;5069047;28;20289;-79
2022/05/28 04:58:47;;;;;;;7.63;4.17;;;6.00;99.90;;;;;;5068637;28;20245;-77
2022/05/28 05:01:16;;;;;;;7.53;4.37;;;6.10;99.90;;;;;;5068439;28;20203;-77
2022/05/28 05:03:43;;;;;;;7.37;4.63;;;6.20;99.90;;;;;;5068035;28;20212;-79
2022/05/28 05:06:12;;;;;;;5.87;4.73;;;6.40;99.90;;;;;;5068604;28;20254;-79
2022/05/28 05:08:39;;;;;;;6.80;4.67;;;6.40;99.90;;;;;;5068084;28;20325;-79
2022/05/28 05:11:06;;;;;;;6.17;4.30;;;6.40;99.90;;;;;;5065252;28;20209;-79
2022/05/28 05:13:32;;;;;;;7.50;4.60;;;6.40;99.90;;;;;;5066108;28;20283;-77
2022/05/28 05:15:59;;;;;;;6.30;4.30;;;6.50;99.90;;;;;;5067976;28;20318;-79
2022/05/28 05:18:26;;;;;;;10.93;4.40;;;6.70;99.90;;;;;;5059376;28;20289;-79
2022/05/28 05:20:53;;;;;;;7.73;4.83;;;7.00;99.90;;;;;;5065297;28;20206;-79
2022/05/28 05:23:21;;;;;;;15.00;6.27;;;7.40;99.90;;;;;;5066534;28;20202;-79
2022/05/28 05:25:48;;;;;;;13.60;6.40;;;7.60;99.90;;;;;;5065219;28;20310;-79
2022/05/28 05:28:15;;;;;;;14.53;6.60;;;8.10;99.90;;;;;;5063302;28;20210;-79
2022/05/28 05:30:42;;;;;;;14.07;6.30;;;9.10;99.90;;;;;;5065149;28;20325;-77
2022/05/28 05:33:09;;;;;;;12.67;5.73;;;9.70;99.90;;;;;;5067831;28;20302;-79
2022/05/28 05:35:36;;;;;;;11.80;5.80;;;10.20;99.90;;;;;;5063110;28;20231;-80
2022/05/28 05:38:06;;;;;;;10.27;5.20;;;10.80;99.90;;;;;;5064634;28;20289;-79
2022/05/28 05:40:37;;;;;;;11.27;5.87;;;11.40;99.90;;;;;;5067422;28;20195;-80
2022/05/28 05:43:04;;;;;;;10.03;5.90;;;11.80;99.90;;;;;;5068468;28;20297;-80
2022/05/28 05:45:31;;;;;;;10.93;5.73;;;12.40;99.90;;;;;;5063448;28;20321;-80
2022/05/28 05:47:58;;;;;;;10.50;5.17;;;13.20;99.90;;;;;;5067197;28;20207;-79
2022/05/28 05:50:25;;;;;;;10.57;5.17;;;13.70;99.90;;;;;;5064940;28;20322;-79
2022/05/28 05:52:52;;;;;;;13.63;5.40;;;14.40;99.90;;;;;;5067878;28;20227;-80
2022/05/28 05:55:20;;;;;;;9.93;4.50;;;14.80;99.90;;;;;;5067100;28;20242;-80
2022/05/28 05:57:49;;;;;;;9.17;4.40;;;15.00;99.90;;;;;;5068009;28;20533;-80
2022/05/28 06:00:17;;;;;;;10.30;4.40;;;15.00;99.90;;;;;;5068151;28;20246;-79
2022/05/28 06:02:44;;;;;;;12.90;4.47;;;15.40;99.90;;;;;;5059760;28;20765;-78
2022/05/28 06:05:11;;;;;;;9.20;4.87;;;15.70;99.90;;;;;;5067285;28;20299;-79
2022/05/28 06:07:38;;;;;;;10.43;4.77;;;16.40;99.90;;;;;;5064149;28;20290;-78
2022/05/28 06:10:09;;;;;;;11.80;4.87;;;17.10;99.90;;;;;;5068452;28;20309;-79
2022/05/28 06:12:36;;;;;;;10.40;5.20;;;17.30;99.90;;;;;;5065973;28;20260;-79
2022/05/28 06:15:05;;;;;;;11.02;5.10;;;17.20;99.90;;;;;;5062451;28;20302;-78
2022/05/28 06:17:34;;;;;;;16.92;5.25;;;17.00;99.90;;;;;;5064859;28;20257;-79
2022/05/28 06:20:01;;;;;;;8.85;4.05;;;17.40;99.90;;;;;;5065196;28;20227;-79
2022/05/28 06:22:28;;;;;;;9.77;3.97;;;18.00;99.90;;;;;;5060040;28;20207;-79
2022/05/28 06:24:56;;;;;;;11.73;3.78;;;18.00;99.90;;;;;;5064657;28;20207;-79
2022/05/28 06:27:23;;;;;;;10.10;3.78;;;17.70;99.90;;;;;;5066047;28;20222;-79
2022/05/28 06:29:50;;;;;;;8.27;3.60;;;17.70;99.90;;;;;;5061886;28;20232;-79
2022/05/28 06:32:18;;;;;;;9.82;3.80;;;17.10;99.90;;;;;;5063716;28;20199;-79
2022/05/28 06:34:45;;;;;;;9.95;3.53;;;17.80;99.90;;;;;;5066236;28;20392;-79
2022/05/28 06:37:13;;;;;;;9.50;3.63;;;17.70;99.90;;;;;;5069099;28;20270;-79
2022/05/28 06:39:40;;;;;;;9.43;3.60;;;17.70;99.90;;;;;;5061808;28;20926;-79
2022/05/28 06:42:08;;;;;;;9.57;3.42;;;18.10;99.90;;;;;;5063333;28;20314;-80
2022/05/28 06:44:35;;;;;;;8.65;3.40;;;18.40;99.90;;;;;;5066816;28;20330;-78
2022/05/28 06:47:03;;;;;;;9.70;3.58;;;18.50;99.90;;;;;;5066051;28;20246;-79
2022/05/28 06:49:31;;;;;;;12.20;3.88;;;18.40;99.90;;;;;;5064395;28;20227;-78
2022/05/28 06:51:58;;;;;;;12.38;4.30;;;18.10;99.90;;;;;;5061311;28;20261;-79
2022/05/28 06:54:25;;;;;;;8.63;4.05;;;18.90;99.90;;;;;;5071571;28;20298;-79
2022/05/28 06:56:52;;;;;;;13.73;4.78;;;19.00;99.90;;;;;;5065913;28;20277;-79
2022/05/28 06:59:19;;;;;;;9.80;4.43;;;19.20;99.90;;;;;;5064310;28;20246;-79
2022/05/28 07:01:46;;;;;;;13.02;4.45;;;19.40;99.90;;;;;;5068687;28;20215;-79
2022/05/28 07:04:13;;;;;;;8.93;3.63;;;19.80;99.90;;;;;;5070838;28;20246;-79
2022/05/28 07:06:41;;;;;;;12.88;4.15;;;20.00;99.90;;;;;;5067464;28;20352;-80
2022/05/28 07:09:08;;;;;;;12.38;4.35;;;19.10;99.90;;;;;;5069936;28;20256;-79
2022/05/28 07:11:35;;;;;;;12.25;4.38;;;19.90;99.90;;;;;;5064424;28;20195;-79
2022/05/28 07:14:02;;;;;;;14.80;4.93;;;20.00;99.90;;;;;;5070146;28;20211;-79
2022/05/28 07:16:29;;;;;;;11.98;4.10;;;19.70;99.90;;;;;;5068487;28;20230;-79
2022/05/28 07:18:55;;;;;;;11.20;4.10;;;18.60;99.90;;;;;;5069850;28;20284;-79
2022/05/28 07:21:22;;;;;;;9.40;3.92;;;18.40;99.90;;;;;;5072017;28;20290;-79
2022/05/28 07:23:51;;;;;;;9.93;3.85;;;18.30;99.90;;;;;;5070443;28;20297;-79
2022/05/28 07:26:18;;;;;;;10.35;4.10;;;18.80;99.90;;;;;;5070938;28;20223;-79
2022/05/28 07:28:46;;;;;;;14.57;4.15;;;19.10;99.90;;;;;;5066084;28;20286;-79
2022/05/28 07:31:15;;;;;;;11.35;3.85;;;18.60;99.90;;;;;;5070810;28;20235;-79
2022/05/28 07:33:44;;;;;;;8.23;4.15;;;18.80;99.90;;;;;;5069980;28;20203;-79
2022/05/28 07:36:13;;;;;;;10.10;4.07;;;19.00;99.90;;;;;;5069695;28;20285;-79
2022/05/28 07:38:41;;;;;;;9.32;4.00;;;18.90;99.90;;;;;;5067792;28;20698;-79
2022/05/28 07:41:12;;;;;;;8.18;3.97;;;19.30;99.90;;;;;;5070047;28;20213;-79
2022/05/28 07:43:39;;;;;;;9.25;3.67;;;19.70;99.90;;;;;;5066237;28;20210;-79
2022/05/28 07:46:12;;;;;;;11.02;3.90;;;20.00;99.90;;;;;;5066116;28;20258;-80
2022/05/28 07:48:39;;;;;;;10.70;4.00;;;20.10;99.90;;;;;;5069552;28;20624;-79
2022/05/28 07:51:06;;;;;;;9.13;3.80;;;19.90;99.90;;;;;;5065199;28;20310;-79
2022/05/28 07:53:33;;;;;;;10.23;3.65;;;20.60;99.90;;;;;;5069399;28;20285;-79
2022/05/28 07:56:01;;;;;;;9.65;4.22;;;20.40;99.90;;;;;;5070490;28;20234;-79
2022/05/28 07:58:29;;;;;;;9.63;3.83;;;20.10;99.90;;;;;;5069351;28;20203;-80
2022/05/28 08:00:57;;;;;;;10.35;3.65;;;20.50;99.90;;;;;;5067826;28;20678;-79
2022/05/28 08:03:24;;;;;;;8.63;3.58;;;20.50;99.90;;;;;;5068606;28;20230;-79
2022/05/28 08:05:53;;;;;;;11.38;3.95;;;20.60;99.90;;;;;;5068875;28;20278;-79
2022/05/28 08:08:23;;;;;;;9.18;3.75;;;21.20;99.90;;;;;;5069899;28;20245;-79
2022/05/28 08:10:51;;;;;;;12.07;3.85;;;21.90;99.90;;;;;;5066444;28;20322;-79
2022/05/28 08:13:21;;;;;;;10.05;3.58;;;22.10;99.90;;;;;;5067468;28;20265;-79
2022/05/28 08:15:51;;;;;;;12.18;3.60;;;21.80;99.90;;;;;;5068944;28;20237;-80
2022/05/28 08:18:21;;;;;;;11.27;3.38;;;21.40;99.90;;;;;;5058415;28;20199;-80
2022/05/28 08:23:32;;;;;;;9.98;3.65;;;22.00;99.90;;;;;;5067087;28;20226;-80
2022/05/28 08:26:00;;;;;;;8.05;3.47;;;21.80;99.90;;;;;;5066141;28;20984;-79
2022/05/28 08:28:27;;;;;;;9.02;3.30;;;21.90;99.90;;;;;;5064191;28;20686;-79
2022/05/28 08:30:55;;;;;;;9.30;3.30;;;21.90;99.90;;;;;;5065614;28;20300;-79
2022/05/28 08:33:23;;;;;;;8.23;3.17;;;22.50;99.90;;;;;;5070311;28;20670;-79
2022/05/28 08:35:51;;;;;;;9.85;3.60;;;22.30;99.90;;;;;;5064656;28;20295;-79
2022/05/28 08:38:20;;;;;;;9.68;3.53;;;22.60;99.90;;;;;;5066413;28;20249;-79
2022/05/28 08:40:52;;;;;;;11.55;3.78;;;23.00;99.90;;;;;;5065422;28;20202;-79
2022/05/28 08:43:20;;;;;;;9.60;3.58;;;23.40;99.90;;;;;;5068045;28;20289;-80
2022/05/28 08:45:50;;;;;;;12.48;3.63;;;23.80;99.90;;;;;;5065521;28;20281;-79
2022/05/28 08:48:21;;;;;;;10.25;3.28;;;23.70;99.90;;;;;;5068330;28;20294;-79
2022/05/28 08:50:54;;;;;;;6.80;3.10;;;24.40;99.90;;;;;;5066057;28;20251;-80
2022/05/28 08:53:27;;;;;;;9.15;3.40;;;24.60;99.90;;;;;;5067311;28;20234;-79
2022/05/28 08:55:55;;;;;;;10.68;3.17;;;24.10;99.90;;;;;;5062427;28;20638;-79
2022/05/28 08:58:25;;;;;;;11.23;3.38;;;24.40;99.90;;;;;;5062896;28;20623;-80
2022/05/28 09:00:57;;;;;;;8.20;3.28;;;24.00;99.90;;;;;;5063906;28;20297;-80
2022/05/28 09:03:28;;;;;;;10.98;3.55;;;24.10;99.90;;;;;;5067616;28;20615;-80
2022/05/28 09:06:01;;;;;;;8.50;3.40;;;23.90;99.90;;;;;;5063634;28;20282;-79
2022/05/28 09:08:31;;;;;;;12.05;3.20;;;23.80;99.90;;;;;;5063599;28;20282;-79
2022/05/28 09:11:03;;;;;;;8.88;2.85;;;24.40;99.90;;;;;;5068362;28;21100;-79
2022/05/28 09:13:37;;;;;;;8.52;3.50;;;24.50;99.90;;;;;;5064159;28;20223;-79
2022/05/28 09:16:05;;;;;;;9.38;3.28;;;24.60;99.90;;;;;;5067936;28;20207;-79
2022/05/28 09:18:36;;;;;;;8.77;3.00;;;24.20;99.90;;;;;;5067890;28;20238;-79
2022/05/28 09:21:05;;;;;;;8.20;2.83;;;24.20;99.90;;;;;;5064386;28;20289;-79
2022/05/28 09:23:41;;;;;;;7.88;2.90;;;23.40;99.90;;;;;;5062771;28;20625;-80
2022/05/28 09:26:09;;;;;;;9.18;3.00;;;23.70;99.90;;;;;;5066566;28;20245;-79
2022/05/28 09:28:49;;;;;;;9.55;2.75;;;24.60;99.90;;;;;;5068490;28;20289;-80
2022/05/28 09:31:27;;;;;;;7.25;2.60;;;23.60;99.90;;;;;;5063544;28;20908;-80
2022/05/28 09:34:14;;;;;;;8.82;2.83;;;24.10;99.90;;;;;;5063385;28;20291;-80
2022/05/28 09:36:50;;;;;;;9.93;3.00;;;25.30;99.90;;;;;;5067337;28;21611;-80
2022/05/28 09:39:30;;;;;;;6.78;2.97;;;24.70;99.90;;;;;;5063073;28;20320;-79
2022/05/28 09:42:05;;;;;;;8.65;2.55;;;25.40;99.90;;;;;;5063068;28;20283;-80
2022/05/28 09:44:50;;;;;;;5.95;2.45;;;25.90;98.00;;;;;;5066335;28;20234;-79
2022/05/28 09:47:18;;;;;;;7.80;2.95;;;24.60;92.30;;;;;;5066999;28;20245;-80
2022/05/28 09:49:54;;;;;;;8.25;3.50;;;24.10;92.10;;;;;;5064213;28;20206;-79
2022/05/28 09:52:24;;;;;;;8.73;3.28;;;23.90;91.70;;;;;;5067120;28;20234;-79
2022/05/28 09:54:51;;;;;;;9.52;3.38;;;24.30;92.60;;;;;;5067022;28;20226;-79
2022/05/28 09:57:26;;;;;;;9.30;3.35;;;25.00;88.10;;;;;;5060157;28;20194;-79
2022/05/28 09:59:59;;;;;;;7.63;2.88;;;24.20;98.40;;;;;;5062690;28;20708;-80
2022/05/28 10:02:28;;;;;;;8.57;3.13;;;24.90;94.50;;;;;;5063827;28;20203;-79
2022/05/28 10:05:02;;;;;;;7.90;2.35;;;24.50;90.20;;;;;;5065872;28;20626;-79
2022/05/28 10:07:33;;;;;;;11.38;3.00;;;24.60;84.60;;;;;;5064350;28;20195;-80
2022/05/28 10:10:01;;;;;;;6.72;3.17;;;25.20;67.90;;;;;;5065453;28;20261;-79
2022/05/28 10:12:30;;;;;;;9.98;3.13;;;24.60;64.30;;;;;;5068684;28;20652;-79
2022/05/28 10:15:04;;;;;;;6.97;2.65;;;24.50;79.10;;;;;;5065938;28;20271;-80
2022/05/28 10:17:33;;;;;;;6.82;2.90;;;25.20;92.20;;;;;;5066986;28;20226;-80
2022/05/28 10:20:04;;;;;;;12.82;2.70;;;26.10;50.00;;;;;;5067347;28;20211;-79
2022/05/28 10:22:32;;;;;;;8.23;2.58;;;25.80;75.20;;;;;;5064344;28;20282;-80
2022/05/28 10:25:02;;;;;;;7.03;2.30;;;25.30;48.10;;;;;;5066773;28;20739;-79
2022/05/28 10:27:34;;;;;;;6.85;2.20;;;24.50;68.10;;;;;;5069182;28;20214;-80
2022/05/28 10:30:06;;;;;;;8.00;2.47;;;25.00;76.50;;;;;;5065539;28;20226;-80
2022/05/28 10:32:37;;;;;;;5.53;2.70;;;26.10;74.10;;;;;;5070147;28;20298;-80
2022/05/28 10:35:14;;;;;;;6.20;2.30;;;24.80;50.90;;;;;;5071778;28;20230;-81
2022/05/28 10:37:41;;;;;;;8.80;2.50;;;24.80;89.20;;;;;;5067968;28;20203;-80
2022/05/28 10:40:13;;;;;;;11.13;2.80;;;25.40;69.80;;;;;;5071614;28;20257;-80
2022/05/28 10:42:40;;;;;;;5.25;2.28;;;26.10;46.60;;;;;;5066724;28;20253;-80
2022/05/28 10:45:09;;;;;;;7.05;2.30;;;25.50;53.20;;;;;;5067123;28;20267;-80
2022/05/28 10:48:02;;;;;;;6.78;2.53;;;26.10;66.30;;;;;;5069436;28;20246;-81
2022/05/28 10:50:40;;;;;;;6.57;2.58;;;26.60;44.20;;;;;;5062258;28;20219;-81
2022/05/28 10:53:14;;;;;;;5.20;2.30;;;25.80;48.70;;;;;;5070353;28;20202;-80
2022/05/28 10:55:51;;;;;;;7.25;2.33;;;25.50;27.30;;;;;;5071028;28;21600;-80
2022/05/28 10:58:29;;;;;;;8.60;2.78;;;25.30;54.50;;;;;;5071832;28;20238;-80
2022/05/28 11:01:02;;;;;;;7.63;2.63;;;25.80;47.40;;;;;;5066919;28;20198;-80
2022/05/28 11:04:01;;;;;;;5.60;2.58;;;26.00;46.50;;;;;;5070498;28;20203;-81
2022/05/28 11:06:56;;;;;;;7.50;2.58;;;25.90;36.50;;;;;;5055209;28;20203;-81
2022/05/28 11:09:32;;;;;;;8.10;2.33;;;26.30;33.70;;;;;;5064330;28;20283;-80
2022/05/28 11:12:15;;;;;;;8.27;2.60;;;25.70;34.40;;;;;;5067620;28;20427;-81
2022/05/28 11:15:08;;;;;;;8.13;2.60;;;25.80;51.00;;;;;;5062572;28;20284;-80
2022/05/28 11:17:52;;;;;;;8.20;2.40;;;26.10;35.90;;;;;;5060228;28;20694;-81
2022/05/28 11:20:25;;;;;;;5.63;2.78;;;26.40;21.00;;;;;;5063568;28;20700;-80
2022/05/28 11:23:21;;;;;;;9.85;2.60;;;26.00;12.60;;;;;;5067479;28;20264;-81
2022/05/28 11:26:00;;;;;;;6.30;2.67;;;26.40;22.50;;;;;;5067888;28;20199;-80
2022/05/28 11:28:50;;;;;;;6.75;2.58;;;26.70;35.00;;;;;;5063714;28;20289;-80
2022/05/28 11:31:29;;;;;;;7.82;2.55;;;26.40;46.70;;;;;;5070053;28;20246;-81
2022/05/28 11:33:58;;;;;;;6.03;2.42;;;27.10;47.90;;;;;;5071267;28;20696;-80
2022/05/28 11:36:28;;;;;;;6.90;2.50;;;26.00;23.90;;;;;;5064542;28;20289;-80
2022/05/28 11:39:01;;;;;;;5.03;2.10;;;26.60;34.40;;;;;;5062827;28;20202;-80
2022/05/28 11:41:34;;;;;;;7.57;2.63;;;26.60;13.40;;;;;;5069092;28;20203;-80
2022/05/28 11:44:06;;;;;;;5.07;2.05;;;25.40;34.20;;;;;;5064096;28;20270;-80
2022/05/28 11:46:41;;;;;;;7.53;2.15;;;25.10;43.80;;;;;;5067975;28;20211;-81
2022/05/28 11:52:07;;;;;;;7.03;2.15;;;25.50;44.60;;;;;;5062536;28;20222;-80
2022/05/28 11:54:39;;;;;;;5.22;2.10;;;25.30;37.80;;;;;;5067404;28;20233;-80
2022/05/28 11:57:15;;;;;;;6.57;2.08;;;25.20;22.60;;;;;;5069808;28;20206;-80
2022/05/28 11:59:43;;;;;;;6.38;2.10;;;25.40;47.60;;;;;;5069962;28;20218;-80
2022/05/28 12:02:15;;;;;;;7.25;2.03;;;25.60;18.10;;;;;;5069944;28;20231;-80
2022/05/28 12:04:43;;;;;;;4.72;2.10;;;25.50;38.00;;;;;;5069407;28;20693;-80
2022/05/28 12:07:14;;;;;;;5.50;1.90;;;26.70;24.90;;;;;;5067850;28;20249;-81
2022/05/28 12:09:46;;;;;;;6.35;2.05;;;26.40;37.60;;;;;;5070181;28;20585;-81
2022/05/28 12:12:21;;;;;;;5.75;2.05;;;26.30;20.60;;;;;;5068882;28;20339;-81
2022/05/28 12:15:01;;;;;;;6.95;2.10;;;25.70;37.90;;;;;;5062970;28;20241;-81
2022/05/28 12:17:29;;;;;;;5.70;2.10;;;26.30;35.30;;;;;;5059323;28;20277;-80
2022/05/28 12:19:59;;;;;;;6.85;1.98;;;26.60;28.70;;;;;;5066101;28;20258;-81
2022/05/28 12:22:30;;;;;;;6.82;1.90;;;25.70;37.40;;;;;;5066831;28;20234;-81
2022/05/28 12:25:05;;;;;;;5.85;1.95;;;27.20;18.40;;;;;;5066147;28;20235;-80
2022/05/28 12:27:42;;;;;;;6.80;2.00;;;26.90;29.10;;;;;;5066501;28;20198;-80
2022/05/28 12:30:24;;;;;;;5.75;1.65;;;26.60;35.70;;;;;;5066699;28;20289;-81
2022/05/28 12:32:52;;;;;;;5.70;1.80;;;26.10;26.00;;;;;;5063104;28;20309;-80
2022/05/28 12:35:41;;;;;;;7.82;2.45;;;26.90;27.00;;;;;;5061354;28;20809;-80
2022/05/28 12:38:23;;;;;;;6.40;1.73;;;26.60;16.60;;;;;;5065706;28;20203;-80
2022/05/28 12:40:56;;;;;;;6.88;2.00;;;27.00;16.80;;;;;;5065863;28;20298;-78
2022/05/28 12:43:29;;;;;;;5.60;1.50;;;26.30;13.10;;;;;;5067069;28;20264;-81
2022/05/28 12:45:58;;;;;;;5.05;1.85;;;25.10;10.70;;;;;;5049508;28;20232;-79
2022/05/28 12:48:27;;;;;;;5.85;2.17;;;25.50;25.90;;;;;;5047028;28;20287;-81
2022/05/28 12:51:04;;;;;;;5.57;1.77;;;25.50;12.50;;;;;;5040479;28;20273;-80
2022/05/28 12:53:35;;;;;;;4.25;2.00;;;25.90;17.20;;;;;;5047634;28;20607;-80
2022/05/28 12:56:06;;;;;;;6.78;1.98;;;25.70;24.10;;;;;;5046324;28;20227;-80
2022/05/28 12:58:36;;;;;;;6.55;1.90;;;26.20;20.60;;;;;;5044176;28;20752;-80
2022/05/28 13:01:05;;;;;;;5.28;1.70;;;25.80;14.20;;;;;;5045385;28;20706;-80
2022/05/28 13:03:37;;;;;;;5.13;1.90;;;25.70;28.70;;;;;;5048983;28;20204;-81
2022/05/28 13:06:09;;;;;;;4.93;1.90;;;25.50;23.20;;;;;;5045512;28;20354;-81
2022/05/28 13:08:42;;;;;;;6.88;1.92;;;25.50;46.60;;;;;;5046068;28;20902;-80